Time;durP1;ratioP1;P1;durP2;ratioP2;P2;SDS_P1;SDS_P2;PMS_P1;PMS_P2;Temp;Humidity;BMP_temperature;BMP_pressure;BME280_temperature;BME280_humidity;BME280_pressure;Samples;Min_cycle;Max_cycle;Signal;HPM_P1;HPM_P2
2021/11/15 00:00:43;;;;;;;2.10;1.90;;;;;;;0.28;70.69;103364.03;4790733;29;20269;-64
2021/11/15 00:03:14;;;;;;;1.80;1.50;;;;;;;0.33;70.92;103361.34;4790191;30;20795;-65
2021/11/15 00:05:39;;;;;;;1.53;1.40;;;;;;;0.29;70.25;103353.56;4790881;30;20304;-64
2021/11/15 00:08:05;;;;;;;3.90;2.10;;;;;;;0.39;69.75;103372.56;4790906;30;20348;-66
2021/11/15 00:10:31;;;;;;;2.20;1.20;;;;;;;0.35;70.04;103359.56;4789384;30;20047;-66
2021/11/15 00:12:56;;;;;;;1.50;1.30;;;;;;;0.38;69.73;103370.84;4788165;29;20039;-65
2021/11/15 00:15:22;;;;;;;4.03;1.50;;;;;;;0.35;69.38;103360.41;4790328;29;20047;-62
2021/11/15 00:17:49;;;;;;;1.87;1.53;;;;;;;0.42;69.36;103367.25;4789864;30;20039;-62
2021/11/15 00:20:15;;;;;;;3.60;1.60;;;;;;;0.39;69.55;103364.69;4789972;29;20067;-64
2021/11/15 00:22:42;;;;;;;2.43;1.90;;;;;;;0.34;69.68;103368.31;4789502;30;20273;-60
2021/11/15 00:25:08;;;;;;;1.80;1.70;;;;;;;0.26;69.58;103365.84;4789111;29;20273;-63
2021/11/15 00:27:37;;;;;;;2.53;1.67;;;;;;;0.40;69.88;103387.38;4789342;29;20312;-66
2021/11/15 00:30:05;;;;;;;1.92;1.52;;;;;;;0.45;69.36;103403.00;4789456;30;20360;-64
2021/11/15 00:32:30;;;;;;;2.42;1.65;;;;;;;0.42;69.28;103397.84;4789441;30;20123;-64
2021/11/15 00:34:56;;;;;;;3.40;1.80;;;;;;;0.49;69.37;103404.66;4789212;29;20126;-62
2021/11/15 00:37:22;;;;;;;1.30;1.20;;;;;;;0.52;69.19;103410.72;4789715;29;20126;-66
2021/11/15 00:39:49;;;;;;;1.60;1.43;;;;;;;0.48;68.80;103397.69;4789302;30;20479;-66
2021/11/15 00:42:14;;;;;;;2.80;1.43;;;;;;;0.56;68.74;103411.50;4789100;29;20039;-65
2021/11/15 00:44:40;;;;;;;1.53;1.37;;;;;;;0.61;68.58;103425.41;4789267;29;20311;-64
2021/11/15 00:47:06;;;;;;;4.50;1.70;;;;;;;0.59;68.26;103419.34;4789167;29;20050;-64
2021/11/15 00:49:32;;;;;;;2.03;1.40;;;;;;;0.66;67.51;103436.66;4788761;29;20046;-62
2021/11/15 00:51:58;;;;;;;2.90;1.40;;;;;;;0.63;68.13;103434.09;4789151;30;20043;-62
2021/11/15 00:54:23;;;;;;;3.03;1.80;;;;;;;0.69;68.03;103447.06;4787551;30;20284;-63
2021/11/15 00:56:49;;;;;;;4.37;2.13;;;;;;;0.72;67.73;103449.63;4788762;30;20074;-64
2021/11/15 00:59:14;;;;;;;2.83;1.50;;;;;;;0.76;68.09;103451.28;4788829;30;20042;-62
2021/11/15 01:01:40;;;;;;;2.37;1.53;;;;;;;0.75;67.55;103453.94;4788780;30;20081;-68
2021/11/15 01:04:06;;;;;;;3.73;1.40;;;;;;;0.75;67.13;103453.94;4788589;30;20414;-67
2021/11/15 01:06:31;;;;;;;2.47;1.47;;;;;;;0.60;67.35;103432.41;4787323;30;20105;-64
2021/11/15 01:08:57;;;;;;;2.80;1.40;;;;;;;0.70;67.26;103448.78;4788214;29;20096;-67
2021/11/15 01:11:22;;;;;;;2.03;1.40;;;;;;;0.71;67.25;103458.38;4788387;30;20047;-65
2021/11/15 01:13:48;;;;;;;3.43;1.50;;;;;;;0.72;67.23;103459.25;4788438;30;20043;-66
2021/11/15 01:16:16;;;;;;;2.30;1.40;;;;;;;0.74;67.75;103475.81;4788494;29;20492;-64
2021/11/15 01:18:43;;;;;;;1.57;1.47;;;;;;;0.68;67.70;103475.97;4788336;30;20372;-65
2021/11/15 01:21:12;;;;;;;4.90;1.60;;;;;;;0.66;67.38;103473.38;4788241;29;20070;-67
2021/11/15 01:23:39;;;;;;;2.83;1.45;;;;;;;0.69;67.36;103477.69;4788166;30;20277;-67
2021/11/15 01:26:06;;;;;;;1.50;1.33;;;;;;;0.62;67.23;103474.34;4788283;29;20085;-68
2021/11/15 01:28:33;;;;;;;1.37;1.27;;;;;;;0.53;65.69;103458.78;4787951;29;20313;-65
2021/11/15 01:30:59;;;;;;;3.67;1.30;;;;;;;0.08;66.38;103409.03;4788096;29;20305;-63
2021/11/15 01:33:25;;;;;;;3.20;1.33;;;;;;;0.55;66.57;103496.31;4787998;30;20307;-64
2021/11/15 01:35:51;;;;;;;1.33;1.23;;;;;;;0.56;67.00;103491.03;4787064;29;20040;-63
2021/11/15 01:38:16;;;;;;;2.13;1.87;;;;;;;0.58;66.97;103498.91;4787944;30;20449;-66
2021/11/15 01:40:42;;;;;;;2.37;1.47;;;;;;;0.53;67.70;103490.22;4788185;30;20039;-66
2021/11/15 01:43:08;;;;;;;1.30;1.20;;;;;;;0.16;67.05;103408.88;4786748;30;20043;-66
2021/11/15 01:45:35;;;;;;;2.00;1.27;;;;;;;0.69;67.22;103496.91;4787940;30;20038;-67
2021/11/15 01:48:03;;;;;;;1.47;1.37;;;;;;;0.55;67.00;103464.84;4787966;30;20504;-68
2021/11/15 01:50:29;;;;;;;1.33;1.10;;;;;;;0.57;66.01;103465.66;4787504;29;20301;-67
2021/11/15 01:52:57;;;;;;;4.70;1.37;;;;;;;0.66;66.07;103486.47;4787951;29;20276;-68
2021/11/15 01:55:24;;;;;;;3.63;1.30;;;;;;;0.65;66.23;103487.38;4786774;30;20281;-66
2021/11/15 01:57:51;;;;;;;1.60;1.50;;;;;;;0.41;66.09;103449.41;4787762;30;20272;-67
2021/11/15 02:00:22;;;;;;;1.43;1.33;;;;;;;0.52;66.44;103484.13;4787656;30;20265;-64
2021/11/15 02:02:48;;;;;;;1.60;1.40;;;;;;;0.62;66.32;103500.56;4788447;30;20276;-63
2021/11/15 02:05:14;;;;;;;1.63;1.40;;;;;;;0.09;66.17;103399.41;4787429;30;20277;-67
2021/11/15 02:07:39;;;;;;;2.30;1.23;;;;;;;0.64;66.11;103492.66;4787942;30;20051;-65
2021/11/15 02:10:08;;;;;;;1.53;1.33;;;;;;;0.61;66.46;103496.22;4787461;29;20334;-64
2021/11/15 02:12:33;;;;;;;1.40;1.30;;;;;;;0.64;66.11;103500.53;4786428;29;20043;-66
2021/11/15 02:14:59;;;;;;;9.23;2.50;;;;;;;0.64;66.50;103504.00;4787873;30;20050;-64
2021/11/15 02:17:25;;;;;;;3.87;1.63;;;;;;;0.65;65.92;103500.50;4787627;30;20214;-66
2021/11/15 02:19:52;;;;;;;4.50;1.87;;;;;;;0.71;66.35;103507.38;4787491;30;20273;-66
2021/11/15 02:22:17;;;;;;;2.13;1.47;;;;;;;0.71;65.76;103500.34;4787422;30;20071;-66
2021/11/15 02:24:44;;;;;;;2.40;1.60;;;;;;;0.79;65.47;103492.31;4788102;30;20838;-63
2021/11/15 02:27:12;;;;;;;2.10;1.77;;;;;;;0.87;65.02;103516.66;4787477;29;20046;-65
2021/11/15 02:29:39;;;;;;;4.37;1.63;;;;;;;0.86;64.88;103517.50;4787309;30;20364;-66
2021/11/15 02:32:06;;;;;;;2.77;1.50;;;;;;;0.64;64.88;103485.66;4787479;30;20765;-64
2021/11/15 02:34:32;;;;;;;1.60;1.50;;;;;;;0.60;65.15;103508.47;4787539;29;20281;-68
2021/11/15 02:37:01;;;;;;;1.70;1.60;;;;;;;0.72;64.87;103533.56;4772505;30;20284;-65
2021/11/15 02:39:26;;;;;;;2.23;1.83;;;;;;;0.74;65.03;103531.78;4788039;30;20397;-68
2021/11/15 02:41:52;;;;;;;5.33;1.77;;;;;;;0.70;64.41;103524.88;4786567;30;20120;-63
2021/11/15 02:44:17;;;;;;;2.13;1.93;;;;;;;0.68;64.58;103534.53;4787659;30;20046;-68
2021/11/15 02:46:43;;;;;;;2.27;2.07;;;;;;;0.69;64.82;103532.75;4787820;29;20047;-64
2021/11/15 02:49:09;;;;;;;2.00;1.80;;;;;;;0.56;64.52;103514.63;4787585;30;20043;-66
2021/11/15 02:51:34;;;;;;;2.30;2.10;;;;;;;0.66;64.77;103543.31;4786731;30;20045;-64
2021/11/15 02:54:00;;;;;;;2.00;1.80;;;;;;;0.36;64.49;103487.09;4787884;29;20075;-64
2021/11/15 02:56:26;;;;;;;2.00;1.80;;;;;;;0.68;64.82;103542.38;4788058;30;20051;-65
2021/11/15 02:58:52;;;;;;;6.10;1.80;;;;;;;0.66;64.63;103531.06;4787274;30;20438;-65
2021/11/15 03:01:19;;;;;;;2.00;1.77;;;;;;;0.72;64.88;103549.28;4789005;30;20279;-64
2021/11/15 03:03:46;;;;;;;3.90;2.00;;;;;;;0.72;64.85;103549.28;4788211;30;20039;-66
2021/11/15 03:06:11;;;;;;;2.03;1.93;;;;;;;0.66;64.70;103549.44;4787424;29;20845;-65
2021/11/15 03:08:38;;;;;;;2.17;1.93;;;;;;;0.56;64.78;103534.75;4786809;30;20352;-63
2021/11/15 03:11:06;;;;;;;2.87;1.80;;;;;;;0.70;64.59;103552.84;4786975;30;20491;-65
2021/11/15 03:13:35;;;;;;;5.43;2.73;;;;;;;0.63;64.85;103543.38;4786819;30;20305;-65
2021/11/15 03:16:02;;;;;;;2.57;1.90;;;;;;;0.72;64.45;103558.94;4787139;30;20285;-66
2021/11/15 03:18:32;;;;;;;3.97;1.90;;;;;;;0.75;64.95;103564.09;4787016;29;20368;-64
2021/11/15 03:21:01;;;;;;;2.77;2.17;;;;;;;0.64;64.75;103555.59;4787062;30;20287;-65
2021/11/15 03:23:28;;;;;;;5.90;2.07;;;;;;;0.59;65.13;103561.81;4786491;30;20277;-63
2021/11/15 03:25:56;;;;;;;2.47;2.23;;;;;;;0.54;65.26;103555.75;4786604;29;20281;-64
2021/11/15 03:28:26;;;;;;;2.30;2.10;;;;;;;0.26;65.20;103518.72;4787320;29;20297;-63
2021/11/15 03:30:54;;;;;;;5.00;3.40;;;;;;;0.48;65.67;103555.03;4788336;30;20333;-64
2021/11/15 03:33:20;;;;;;;2.10;1.90;;;;;;;0.51;64.63;103568.06;4787546;30;20281;-65
2021/11/15 03:35:46;;;;;;;2.67;2.10;;;;;;;0.44;65.15;103556.84;4787430;30;20289;-64
2021/11/15 03:38:12;;;;;;;4.60;2.20;;;;;;;0.45;64.67;103539.34;4787171;29;20281;-62
2021/11/15 03:40:38;;;;;;;3.50;2.17;;;;;;;0.51;64.43;103568.94;4787206;29;20618;-64
2021/11/15 03:43:05;;;;;;;2.27;2.03;;;;;;;0.51;63.79;103571.56;4786413;29;20039;-66
2021/11/15 03:45:32;;;;;;;1.93;1.80;;;;;;;0.34;64.48;103541.31;4785399;30;20301;-64
2021/11/15 03:47:58;;;;;;;2.40;2.20;;;;;;;0.51;64.17;103581.19;4785991;30;20846;-65
2021/11/15 03:50:25;;;;;;;3.00;1.93;;;;;;;0.40;64.96;103570.91;4785319;30;20311;-67
2021/11/15 03:52:53;;;;;;;2.20;2.00;;;;;;;0.39;64.78;103570.94;4785362;29;20304;-63
2021/11/15 03:55:20;;;;;;;4.17;1.97;;;;;;;0.43;65.13;103585.72;4785299;30;20347;-65
2021/11/15 03:57:47;;;;;;;2.40;2.20;;;;;;;0.30;65.42;103569.34;4787043;29;20765;-62
2021/11/15 04:00:18;;;;;;;2.83;2.57;;;;;;;0.43;65.49;103589.19;4790319;29;20273;-69
2021/11/15 04:02:49;;;;;;;2.53;2.27;;;;;;;0.40;65.44;103570.03;4791757;30;20269;-65
2021/11/15 04:05:15;;;;;;;2.13;1.93;;;;;;;0.43;64.47;103586.56;4789497;30;20291;-68
2021/11/15 04:07:42;;;;;;;2.93;2.10;;;;;;;0.45;64.67;103592.66;4789399;29;20765;-67
2021/11/15 04:10:16;;;;;;;3.90;3.23;;;;;;;0.48;65.17;103589.97;4789030;30;20415;-66
2021/11/15 04:12:42;;;;;;;2.93;2.30;;;;;;;0.47;65.35;103580.38;4789564;29;20269;-66
2021/11/15 04:15:09;;;;;;;11.60;3.23;;;;;;;0.49;64.98;103582.97;4789549;30;20334;-68
2021/11/15 04:17:35;;;;;;;4.97;2.23;;;;;;;0.60;64.87;103591.53;4789445;29;20043;-66
2021/11/15 04:20:02;;;;;;;2.93;2.20;;;;;;;0.59;64.27;103602.91;4789220;29;20289;-73
2021/11/15 04:22:28;;;;;;;3.73;2.53;;;;;;;0.51;63.87;103573.31;4788395;29;20043;-72
2021/11/15 04:24:54;;;;;;;4.27;2.20;;;;;;;0.29;63.67;103542.28;4786950;29;20365;-71
2021/11/15 04:27:19;;;;;;;3.30;2.30;;;;;;;0.49;64.06;103580.34;4789111;29;20078;-69
2021/11/15 04:29:45;;;;;;;10.77;3.40;;;;;;;0.46;64.70;103588.28;4789285;30;20047;-72
2021/11/15 04:32:11;;;;;;;5.00;3.00;;;;;;;0.33;65.44;103576.31;4789150;29;20051;-71
2021/11/15 04:34:37;;;;;;;9.60;4.03;;;;;;;0.32;65.93;103580.69;4788979;29;20050;-64
2021/11/15 04:37:03;;;;;;;7.07;4.63;;;;;;;0.32;65.84;103587.69;4789042;30;20082;-65
2021/11/15 04:39:29;;;;;;;13.03;4.30;;;;;;;0.33;65.69;103581.53;4787432;30;20341;-69
2021/11/15 04:41:54;;;;;;;11.20;4.37;;;;;;;0.21;65.87;103578.22;4788956;30;20043;-69
2021/11/15 04:44:20;;;;;;;11.33;4.53;;;;;;;0.24;66.11;103583.41;4788892;29;20190;-68
2021/11/15 04:46:45;;;;;;;16.33;5.00;;;;;;;0.29;66.46;103597.31;4789228;30;20134;-68
2021/11/15 04:49:11;;;;;;;9.13;3.90;;;;;;;0.29;66.17;103596.47;4788930;29;20043;-67
2021/11/15 04:51:36;;;;;;;4.93;3.57;;;;;;;0.22;66.07;103581.72;4788942;30;20206;-68
2021/11/15 04:54:03;;;;;;;8.13;4.77;;;;;;;0.27;65.84;103596.47;4787329;30;20054;-68
2021/11/15 04:56:28;;;;;;;6.60;4.27;;;;;;;0.29;65.62;103597.31;4788850;29;20047;-72
2021/11/15 04:58:54;;;;;;;7.07;4.07;;;;;;;0.29;66.27;103610.44;4788741;29;20666;-68
2021/11/15 05:01:20;;;;;;;10.77;4.00;;;;;;;0.27;66.37;103604.31;4788578;30;20441;-66
2021/11/15 05:03:45;;;;;;;11.83;3.93;;;;;;;0.22;66.32;103600.91;4788831;30;20122;-68
2021/11/15 05:06:11;;;;;;;8.63;3.20;;;;;;;0.10;66.06;103593.28;4788600;29;20043;-65
2021/11/15 05:08:36;;;;;;;8.60;3.77;;;;;;;0.01;66.72;103596.06;4788567;30;20499;-68
2021/11/15 05:11:02;;;;;;;8.17;3.80;;;;;;;-0.07;67.34;103596.16;4788039;29;20051;-63
2021/11/15 05:13:28;;;;;;;15.33;3.77;;;;;;;-0.18;67.29;103595.50;4788634;30;20504;-65
2021/11/15 05:15:54;;;;;;;15.63;4.73;;;;;;;-0.36;67.91;103574.81;4787319;30;20046;-65
2021/11/15 05:18:20;;;;;;;5.20;3.77;;;;;;;-0.35;68.02;103589.63;4788533;30;20100;-64
2021/11/15 05:20:45;;;;;;;6.60;3.50;;;;;;;-0.28;67.54;103606.16;4787639;30;20047;-64
2021/11/15 05:23:11;;;;;;;9.13;4.37;;;;;;;-0.28;67.98;103603.53;4788370;29;20641;-64
2021/11/15 05:25:36;;;;;;;7.53;4.20;;;;;;;-0.32;67.94;103600.94;4788123;30;20035;-65
2021/11/15 05:28:02;;;;;;;9.83;4.20;;;;;;;-0.64;68.00;103545.56;4788181;30;20073;-65
2021/11/15 05:30:29;;;;;;;5.37;4.23;;;;;;;-0.44;67.90;103577.56;4788172;29;20053;-65
2021/11/15 05:32:55;;;;;;;13.67;4.00;;;;;;;-0.29;68.00;103607.88;4788378;30;20051;-64
2021/11/15 05:35:24;;;;;;;6.57;3.57;;;;;;;-0.26;68.07;103620.09;4788101;30;20311;-65
2021/11/15 05:37:51;;;;;;;6.30;4.07;;;;;;;-0.33;68.00;103607.06;4787682;30;20808;-65
2021/11/15 05:40:18;;;;;;;3.93;3.27;;;;;;;-0.34;67.26;103596.59;4788243;29;20047;-66
2021/11/15 05:42:43;;;;;;;6.80;4.00;;;;;;;-0.26;67.34;103612.22;4788027;29;20285;-67
2021/11/15 05:45:10;;;;;;;5.03;3.77;;;;;;;-0.28;67.03;103619.25;4788115;30;20279;-65
2021/11/15 05:47:36;;;;;;;5.07;3.60;;;;;;;-0.38;67.03;103603.66;4788162;29;20043;-65
2021/11/15 05:50:05;;;;;;;9.17;3.90;;;;;;;-0.29;66.62;103612.25;4788355;30;20304;-67
2021/11/15 05:52:30;;;;;;;6.32;3.15;;;;;;;-0.33;66.16;103607.06;4787796;30;20561;-66
2021/11/15 05:54:56;;;;;;;9.50;3.80;;;;;;;-0.37;66.19;103584.44;4787941;30;20129;-65
2021/11/15 05:57:22;;;;;;;6.53;3.80;;;;;;;-0.19;66.29;103598.13;4787870;30;20043;-67
2021/11/15 05:59:48;;;;;;;10.23;4.53;;;;;;;-0.14;65.70;103609.41;4787672;29;20041;-65
2021/11/15 06:02:14;;;;;;;10.17;3.63;;;;;;;0.07;64.86;103627.41;4787483;30;20055;-68
2021/11/15 06:04:40;;;;;;;7.17;3.93;;;;;;;0.11;64.98;103618.59;4783548;30;20273;-63
2021/11/15 06:07:05;;;;;;;7.53;3.23;;;;;;;0.09;64.09;103607.28;4787274;29;20276;-72
2021/11/15 06:09:31;;;;;;;4.10;2.90;;;;;;;0.18;63.53;103614.13;4785434;30;20050;-67
2021/11/15 06:11:56;;;;;;;6.47;3.17;;;;;;;0.22;63.63;103626.28;4786892;30;20174;-67
2021/11/15 06:14:22;;;;;;;7.70;3.37;;;;;;;0.18;63.84;103620.22;4786134;30;20185;-66
2021/11/15 06:16:54;;;;;;;3.70;3.27;;;;;;;0.27;63.41;103622.66;4785866;30;20039;-67
2021/11/15 06:19:20;;;;;;;7.80;3.50;;;;;;;0.27;62.92;103611.31;4785816;30;20036;-69
2021/11/15 06:21:47;;;;;;;5.30;2.70;;;;;;;0.32;62.45;103609.50;4785190;29;20685;-71
2021/11/15 06:24:12;;;;;;;3.60;3.20;;;;;;;0.43;63.16;103615.41;4787276;29;20285;-71
2021/11/15 06:26:38;;;;;;;3.40;3.10;;;;;;;0.52;63.61;103614.38;4770430;30;20649;-72
2021/11/15 06:29:04;;;;;;;5.87;2.83;;;;;;;0.62;62.25;103615.97;4785919;29;20059;-73
2021/11/15 06:31:29;;;;;;;6.27;4.07;;;;;;;0.60;63.31;103617.75;4786565;30;20055;-63
2021/11/15 06:33:55;;;;;;;10.73;4.13;;;;;;;0.54;63.79;103617.84;4787127;29;20126;-73
2021/11/15 06:36:23;;;;;;;11.57;4.50;;;;;;;0.53;64.42;103618.72;4787038;29;20047;-72
2021/11/15 06:38:52;;;;;;;14.55;4.35;;;;;;;0.46;63.94;103606.63;4786922;29;20577;-73
2021/11/15 06:41:18;;;;;;;19.52;4.40;;;;;;;0.56;64.56;103616.91;4786270;29;20476;-64
2021/11/15 06:43:43;;;;;;;13.87;6.77;;;;;;;0.54;63.42;103609.97;4786553;30;20039;-68
2021/11/15 06:46:09;;;;;;;10.60;4.00;;;;;;;0.61;63.04;103627.34;4785472;30;20047;-71
2021/11/15 06:48:47;;;;;;;11.40;4.67;;;;;;;0.60;62.24;103610.75;4785818;30;20388;-67
2021/11/15 06:51:13;;;;;;;14.07;5.50;;;;;;;0.63;61.78;103625.56;4785123;30;20059;-72
2021/11/15 06:53:41;;;;;;;7.67;4.50;;;;;;;0.54;61.24;103623.06;4785956;29;20288;-63
2021/11/15 06:56:07;;;;;;;10.05;4.43;;;;;;;0.42;61.53;103620.69;4787219;30;20288;-65
2021/11/15 06:58:34;;;;;;;5.03;4.10;;;;;;;0.44;61.75;103624.16;4787935;30;20135;-67
2021/11/15 07:01:00;;;;;;;8.73;4.80;;;;;;;0.47;61.51;103621.47;4786642;30;20277;-73
2021/11/15 07:03:26;;;;;;;7.70;4.30;;;;;;;0.56;61.12;103624.78;4786495;30;20815;-70
2021/11/15 07:05:52;;;;;;;6.63;4.23;;;;;;;0.61;60.53;103615.09;4785739;30;20458;-74
2021/11/15 07:08:18;;;;;;;5.43;4.43;;;;;;;0.74;60.97;103622.72;4786377;29;20775;-71
2021/11/15 07:10:44;;;;;;;6.43;4.40;;;;;;;0.34;60.54;103549.19;4770778;30;20073;-73
2021/11/15 07:13:12;;;;;;;8.67;5.70;;;;;;;0.85;60.59;103618.09;4786961;29;20281;-73
2021/11/15 07:15:38;;;;;;;4.50;4.10;;;;;;;0.89;60.12;103620.66;4784303;29;20058;-75
2021/11/15 07:18:04;;;;;;;5.57;4.97;;;;;;;0.89;59.81;103622.44;4786712;30;20449;-73
2021/11/15 07:20:29;;;;;;;5.90;4.27;;;;;;;0.82;60.01;103619.03;4786578;30;20122;-75
2021/11/15 07:22:54;;;;;;;6.70;4.80;;;;;;;0.72;60.30;103622.75;4770478;30;20066;-72
2021/11/15 07:25:21;;;;;;;9.80;5.60;;;;;;;0.67;60.41;103635.09;4786443;30;20047;-70
2021/11/15 07:27:52;;;;;;;5.10;4.13;;;;;;;0.67;60.57;103628.97;4786621;29;20139;-73
2021/11/15 07:30:18;;;;;;;8.07;4.30;;;;;;;0.66;60.38;103633.34;4784911;29;20390;-68
2021/11/15 07:32:46;;;;;;;9.50;4.50;;;;;;;0.44;60.52;103597.94;4786268;29;20691;-66
2021/11/15 07:35:13;;;;;;;7.43;4.35;;;;;;;0.39;60.69;103598.00;4788914;30;20297;-67
2021/11/15 07:37:39;;;;;;;8.03;4.73;;;;;;;0.42;61.05;103616.31;4789872;29;20047;-71
2021/11/15 07:40:07;;;;;;;10.80;4.20;;;;;;;0.41;61.28;103632.94;4789903;30;20281;-69
2021/11/15 07:42:33;;;;;;;6.10;4.45;;;;;;;0.35;60.79;103640.03;4789636;30;20039;-70
2021/11/15 07:44:59;;;;;;;8.67;5.03;;;;;;;0.37;60.99;103640.88;4789972;29;20089;-71
2021/11/15 07:47:25;;;;;;;6.13;4.73;;;;;;;0.43;60.95;103635.53;4774172;30;20371;-71
2021/11/15 07:49:51;;;;;;;5.20;4.50;;;;;;;0.45;61.29;103634.59;4790019;30;20114;-71
2021/11/15 07:52:17;;;;;;;9.50;4.60;;;;;;;0.60;59.88;103655.31;4788702;30;20392;-65
2021/11/15 07:54:44;;;;;;;10.10;6.37;;;;;;;0.70;59.85;103652.53;4790089;30;20293;-69
2021/11/15 07:57:09;;;;;;;8.90;5.73;;;;;;;0.81;60.06;103661.91;4789864;30;20043;-62
2021/11/15 07:59:37;;;;;;;12.97;6.60;;;;;;;0.83;59.30;103648.75;4789603;30;20277;-70
2021/11/15 08:02:03;;;;;;;7.03;5.53;;;;;;;0.82;59.26;103640.03;4789744;30;20051;-65
2021/11/15 08:04:28;;;;;;;20.37;7.13;;;;;;;0.88;59.29;103653.06;4788538;29;20291;-69
2021/11/15 08:06:54;;;;;;;16.87;7.73;;;;;;;0.96;59.56;103657.28;4788756;30;20285;-66
2021/11/15 08:09:19;;;;;;;11.93;6.73;;;;;;;0.96;59.20;103646.78;4789753;30;20039;-67
2021/11/15 08:11:49;;;;;;;16.97;6.83;;;;;;;0.89;59.19;103652.16;4789213;29;20047;-66
2021/11/15 08:14:16;;;;;;;12.00;5.40;;;;;;;0.77;58.96;103626.13;4788073;30;20039;-67
2021/11/15 08:16:43;;;;;;;10.30;5.80;;;;;;;0.83;58.63;103639.13;4789192;30;20367;-69
2021/11/15 08:19:09;;;;;;;6.87;4.90;;;;;;;0.92;59.11;103636.34;4789537;29;20277;-66
2021/11/15 08:21:35;;;;;;;10.70;5.33;;;;;;;0.88;59.60;103637.31;4789226;30;20272;-67
2021/11/15 08:24:14;;;;;;;10.60;5.70;;;;;;;0.87;59.58;103645.22;4788920;29;20043;-68
2021/11/15 08:26:47;;;;;;;17.73;6.87;;;;;;;0.87;59.47;103658.34;4789051;30;20286;-67
2021/11/15 08:29:15;;;;;;;8.33;6.27;;;;;;;0.73;59.66;103634.97;4787766;30;20301;-72
2021/11/15 08:31:43;;;;;;;13.63;6.23;;;;;;;0.86;59.04;103641.69;4786185;30;20312;-64
2021/11/15 08:34:10;;;;;;;9.90;5.57;;;;;;;1.01;59.23;103644.94;4789002;30;20277;-64
2021/11/15 08:36:39;;;;;;;15.33;6.63;;;;;;;1.09;59.01;103632.50;4787696;29;20047;-70
2021/11/15 08:39:14;;;;;;;17.23;6.97;;;;;;;1.13;58.98;103644.66;4787902;29;20277;-67
2021/11/15 08:41:46;;;;;;;16.07;7.10;;;;;;;1.14;58.31;103647.25;4788840;30;20319;-74
2021/11/15 08:44:16;;;;;;;12.30;6.83;;;;;;;0.75;58.71;103580.72;4788678;29;20284;-68
2021/11/15 08:46:45;;;;;;;12.50;6.80;;;;;;;1.18;58.57;103627.09;4788833;30;20279;-69
2021/11/15 08:49:12;;;;;;;10.02;7.63;;;;;;;1.25;58.39;103626.06;4788699;30;20269;-62
2021/11/15 08:51:40;;;;;;;15.97;7.77;;;;;;;1.52;57.85;103633.34;4787225;29;20047;-65
2021/11/15 08:54:09;;;;;;;13.27;7.37;;;;;;;1.78;56.74;103631.88;4795933;29;20311;-65
2021/11/15 08:56:38;;;;;;;13.70;7.45;;;;;;;1.85;56.41;103620.31;4795604;29;20276;-63
2021/11/15 08:59:03;;;;;;;9.70;6.13;;;;;;;1.82;56.63;103623.03;4796200;29;20122;-63
2021/11/15 09:01:29;;;;;;;8.40;5.10;;;;;;;1.62;56.52;103615.59;4800708;29;20800;-67
2021/11/15 09:03:55;;;;;;;13.83;7.13;;;;;;;1.42;56.70;103605.53;4791992;29;20035;-71
2021/11/15 09:06:22;;;;;;;9.13;5.70;;;;;;;1.22;57.11;103597.25;4798226;29;20546;-72
2021/11/15 09:08:50;;;;;;;13.10;7.47;;;;;;;1.29;57.26;103625.09;4794836;29;20042;-65
2021/11/15 09:11:16;;;;;;;11.87;6.07;;;;;;;1.24;58.44;103640.06;4802794;29;20409;-71
2021/11/15 09:13:44;;;;;;;8.57;7.30;;;;;;;1.15;59.49;103629.75;4787103;29;20273;-75
2021/11/15 09:16:11;;;;;;;14.05;7.13;;;;;;;1.01;59.86;103614.31;4788531;30;20273;-67
2021/11/15 09:18:37;;;;;;;10.10;5.77;;;;;;;1.03;60.12;103606.38;4796063;29;20109;-71
2021/11/15 09:21:07;;;;;;;14.23;7.40;;;;;;;0.96;60.71;103591.69;4794706;29;20280;-72
2021/11/15 09:23:35;;;;;;;14.63;7.10;;;;;;;1.09;60.69;103611.50;4794831;29;20074;-73
2021/11/15 09:26:04;;;;;;;10.63;6.90;;;;;;;1.12;60.88;103621.94;4774218;29;20324;-74
2021/11/15 09:28:30;;;;;;;15.20;7.90;;;;;;;1.10;60.68;103600.09;4789859;29;20335;-72
2021/11/15 09:30:56;;;;;;;10.10;7.30;;;;;;;1.15;60.35;103600.88;4789686;29;20058;-73
2021/11/15 09:33:22;;;;;;;12.10;8.10;;;;;;;1.17;60.62;103612.22;4786555;29;20039;-71
2021/11/15 09:35:48;;;;;;;10.70;6.33;;;;;;;1.17;60.23;103605.22;4771691;30;20324;-69
2021/11/15 09:38:19;;;;;;;8.17;6.00;;;;;;;1.21;60.47;103612.13;4786700;30;20134;-65
2021/11/15 09:40:49;;;;;;;8.87;5.57;;;;;;;1.18;60.20;103611.34;4789415;29;20844;-61
2021/11/15 09:43:16;;;;;;;10.63;6.30;;;;;;;1.12;60.32;103606.19;4795865;29;20277;-61
2021/11/15 09:45:44;;;;;;;11.53;6.43;;;;;;;1.07;60.86;103608.06;4796961;29;20288;-64
2021/11/15 09:48:09;;;;;;;28.27;5.97;;;;;;;1.02;60.66;103599.41;4802935;29;21254;-62
2021/11/15 09:50:37;;;;;;;9.13;5.97;;;;;;;0.87;61.00;103590.97;4789695;29;20308;-70
2021/11/15 09:53:05;;;;;;;10.37;5.93;;;;;;;0.86;60.76;103606.72;4787687;30;20051;-73
2021/11/15 09:55:33;;;;;;;7.10;5.87;;;;;;;0.84;61.29;103613.75;4801203;29;20630;-75
2021/11/15 09:58:05;;;;;;;10.63;5.70;;;;;;;0.81;61.47;103606.81;4803225;29;20931;-73
2021/11/15 10:00:34;;;;;;;7.93;5.53;;;;;;;0.87;61.64;103606.72;4787915;29;20284;-70
2021/11/15 10:03:02;;;;;;;7.80;5.43;;;;;;;0.89;60.91;103604.94;4774467;29;20096;-70
2021/11/15 10:05:29;;;;;;;9.73;5.33;;;;;;;0.53;61.41;103548.78;4792264;29;20304;-64
2021/11/15 10:07:56;;;;;;;13.90;5.80;;;;;;;0.88;61.04;103603.19;4776596;29;20284;-67
2021/11/15 10:10:54;;;;;;;7.90;4.97;;;;;;;0.79;61.20;103577.13;4791798;29;20300;-69
2021/11/15 10:13:31;;;;;;;8.00;5.38;;;;;;;0.78;61.84;103593.75;4809041;29;20337;-72
2021/11/15 10:15:59;;;;;;;8.57;5.70;;;;;;;0.75;61.75;103585.97;4808609;29;20043;-71
2021/11/15 10:18:32;;;;;;;10.55;5.90;;;;;;;0.63;62.20;103562.59;4805631;29;20335;-74
2021/11/15 10:21:02;;;;;;;6.23;5.07;;;;;;;0.72;61.63;103578.16;4804935;29;20411;-72
2021/11/15 10:23:32;;;;;;;9.10;5.80;;;;;;;0.76;61.97;103582.44;4789006;29;20776;-70
2021/11/15 10:26:00;;;;;;;9.17;5.00;;;;;;;0.73;62.20;103577.25;4805165;29;20288;-68
2021/11/15 10:28:31;;;;;;;11.03;6.17;;;;;;;0.78;61.74;103579.78;4804745;29;20296;-69
2021/11/15 10:30:57;;;;;;;8.60;4.93;;;;;;;0.81;61.68;103580.59;4789233;29;20308;-69
2021/11/15 10:33:35;;;;;;;7.13;4.83;;;;;;;0.65;62.15;103560.81;4788574;29;20288;-69
2021/11/15 10:36:02;;;;;;;9.00;5.30;;;;;;;0.78;61.99;103578.03;4805218;29;20280;-70
2021/11/15 10:38:47;;;;;;;12.43;6.13;;;;;;;0.83;62.47;103573.53;4789150;29;20273;-69
2021/11/15 10:41:20;;;;;;;8.40;5.10;;;;;;;0.84;62.29;103564.78;4805953;29;20956;-69
2021/11/15 10:43:55;;;;;;;12.23;7.23;;;;;;;0.86;61.80;103568.22;4804787;29;20268;-69
2021/11/15 10:46:30;;;;;;;7.80;5.57;;;;;;;0.78;62.02;103554.41;4788899;29;20633;-67
2021/11/15 10:48:58;;;;;;;7.53;5.40;;;;;;;0.34;61.73;103467.94;4805108;29;20284;-68
2021/11/15 10:52:00;;;;;;;6.43;5.27;;;;;;;0.74;62.36;103546.63;4804992;29;20641;-68
2021/11/15 10:55:00;;;;;;;7.67;5.63;;;;;;;0.74;61.98;103541.41;4805059;29;20353;-72
2021/11/15 10:57:46;;;;;;;13.10;6.70;;;;;;;0.67;62.06;103532.78;4788890;29;20284;-68
2021/11/15 11:00:15;;;;;;;12.07;6.53;;;;;;;0.65;62.50;103531.97;4803231;29;20333;-70
2021/11/15 11:02:46;;;;;;;8.73;6.60;;;;;;;0.69;62.21;103546.75;4803929;29;20288;-67
2021/11/15 11:05:21;;;;;;;8.57;6.37;;;;;;;0.68;63.11;103552.88;4787492;29;20323;-67
2021/11/15 11:08:05;;;;;;;10.57;5.57;;;;;;;0.69;62.47;103551.97;4804961;29;20272;-66
2021/11/15 11:10:38;;;;;;;6.57;5.93;;;;;;;0.29;63.04;103518.69;4807566;29;20303;-70
2021/11/15 11:13:04;;;;;;;7.07;5.63;;;;;;;0.51;63.23;103560.19;4791423;29;20287;-68
2021/11/15 11:18:19;;;;;;;7.05;5.50;;;;;;;0.58;63.04;103562.69;4792327;29;20042;-67
2021/11/15 11:23:27;;;;;;;6.57;4.80;;;;;;;0.44;62.45;103537.63;4808176;29;20283;-63
2021/11/15 11:25:54;;;;;;;10.67;4.80;;;;;;;0.47;62.60;103554.16;4809064;29;20764;-66
2021/11/15 11:28:38;;;;;;;5.27;4.23;;;;;;;0.38;63.21;103558.72;4792012;29;20324;-65
2021/11/15 11:31:11;;;;;;;9.10;4.73;;;;;;;0.28;63.38;103544.91;4793001;29;20304;-64
2021/11/15 11:33:37;;;;;;;10.80;5.67;;;;;;;0.30;63.49;103557.13;4809384;29;20847;-69
2021/11/15 11:36:05;;;;;;;5.57;4.33;;;;;;;0.32;64.05;103561.47;4808868;29;20339;-70
2021/11/15 11:38:31;;;;;;;5.77;4.43;;;;;;;0.18;64.43;103552.06;4808429;29;20276;-66